createdAt,value
2022-09-07T00:01:50.173Z,1.00
2022-09-07T00:04:16.890Z,0.63
2022-09-07T00:06:43.657Z,0.77
2022-09-07T00:09:10.317Z,0.70
2022-09-07T00:11:37.021Z,0.70
2022-09-07T00:14:06.072Z,0.60
2022-09-07T00:16:32.749Z,0.90
2022-09-07T00:19:01.419Z,0.90
2022-09-07T00:21:29.340Z,0.80
2022-09-07T00:23:58.580Z,0.88
2022-09-07T00:26:27.163Z,1.02
2022-09-07T00:28:57.584Z,0.88
2022-09-07T00:31:27.018Z,1.10
2022-09-07T00:33:54.569Z,0.80
2022-09-07T00:36:22.870Z,0.93
2022-09-07T00:38:50.133Z,0.95
2022-09-07T00:41:19.983Z,0.82
2022-09-07T00:43:48.627Z,0.90
2022-09-07T00:46:17.704Z,0.77
2022-09-07T00:48:52.095Z,0.80
2022-09-07T00:51:24.644Z,0.93
2022-09-07T00:53:58.151Z,0.90
2022-09-07T00:56:29.006Z,0.80
2022-09-07T00:58:56.315Z,1.52
2022-09-07T01:01:23.057Z,0.90
2022-09-07T01:03:54.567Z,1.05
2022-09-07T01:06:24.801Z,0.90
2022-09-07T01:08:51.839Z,0.77
2022-09-07T01:11:20.861Z,0.80
2022-09-07T01:13:50.008Z,1.00
2022-09-07T01:16:29.755Z,1.00
2022-09-07T01:19:19.597Z,0.90
2022-09-07T01:22:00.388Z,1.57
2022-09-07T01:24:56.208Z,1.60
2022-09-07T01:27:50.478Z,1.95
2022-09-07T01:30:18.986Z,1.83
2022-09-07T01:33:11.941Z,1.80
2022-09-07T01:35:46.893Z,1.70
2022-09-07T01:38:21.580Z,1.48
2022-09-07T01:40:57.425Z,1.15
2022-09-07T01:43:34.181Z,1.10
2022-09-07T01:46:07.142Z,1.00
2022-09-07T01:48:37.879Z,0.90
2022-09-07T01:51:05.249Z,0.63
2022-09-07T01:53:36.858Z,0.88
2022-09-07T01:56:06.937Z,0.70
2022-09-07T01:58:39.508Z,0.93
2022-09-07T02:01:10.052Z,0.97
2022-09-07T02:03:42.388Z,1.02
2022-09-07T02:06:16.939Z,1.10
2022-09-07T02:08:49.428Z,1.05
2022-09-07T02:11:20.068Z,1.05
2022-09-07T02:13:54.439Z,1.10
2022-09-07T02:16:26.665Z,1.00
2022-09-07T02:18:56.494Z,0.80
2022-09-07T02:21:34.120Z,0.75
2022-09-07T02:24:05.656Z,0.70
2022-09-07T02:26:45.747Z,0.63
2022-09-07T02:29:17.340Z,0.70
2022-09-07T02:31:44.201Z,0.60
2022-09-07T02:34:11.655Z,0.60
2022-09-07T02:36:44.662Z,0.65
2022-09-07T02:39:11.760Z,0.70
2022-09-07T02:41:40.724Z,0.70
2022-09-07T02:44:11.964Z,0.63
2022-09-07T02:46:56.412Z,0.60
2022-09-07T02:49:38.423Z,0.70
2022-09-07T02:52:12.544Z,0.60
2022-09-07T02:54:53.511Z,0.50
2022-09-07T02:57:31.785Z,0.60
2022-09-07T03:00:06.411Z,0.60
2022-09-07T03:02:43.581Z,0.68
2022-09-07T03:05:16.477Z,0.70
2022-09-07T03:07:47.944Z,0.60
2022-09-07T03:10:15.944Z,0.60
2022-09-07T03:12:45.519Z,0.70
2022-09-07T03:15:14.145Z,0.68
2022-09-07T03:17:45.596Z,0.73
2022-09-07T03:20:13.072Z,0.60
2022-09-07T03:22:40.133Z,0.68
2022-09-07T03:25:07.964Z,0.57
2022-09-07T03:27:34.875Z,0.82
2022-09-07T03:30:01.876Z,0.77
2022-09-07T03:32:30.354Z,0.70
2022-09-07T03:34:58.445Z,0.60
2022-09-07T03:37:25.340Z,0.80
2022-09-07T03:39:52.031Z,0.80
2022-09-07T03:42:19.194Z,0.80
2022-09-07T03:44:46.279Z,0.77
2022-09-07T03:47:12.912Z,0.90
2022-09-07T03:49:39.555Z,1.00
2022-09-07T03:52:07.905Z,0.70
2022-09-07T03:54:37.800Z,1.00
2022-09-07T03:57:06.849Z,1.10
2022-09-07T03:59:33.949Z,1.20
2022-09-07T04:02:00.900Z,1.30
2022-09-07T04:04:27.938Z,1.35
2022-09-07T04:06:54.849Z,1.40
2022-09-07T04:09:24.523Z,1.67
2022-09-07T04:11:51.276Z,1.90
2022-09-07T04:14:18.267Z,2.17
2022-09-07T04:16:45.308Z,2.38
2022-09-07T04:19:11.908Z,2.33
2022-09-07T04:21:38.704Z,2.50
2022-09-07T04:24:05.784Z,2.90
2022-09-07T04:26:34.945Z,3.13
2022-09-07T04:29:01.918Z,3.30
2022-09-07T04:31:29.892Z,3.63
2022-09-07T04:33:56.680Z,3.00
2022-09-07T04:36:23.545Z,3.50
2022-09-07T04:38:55.162Z,3.67
2022-09-07T04:41:22.944Z,3.72
2022-09-07T04:43:55.763Z,3.60
2022-09-07T04:46:25.688Z,3.50
2022-09-07T04:48:54.483Z,3.63
2022-09-07T04:51:23.020Z,3.80
2022-09-07T04:53:51.279Z,3.72
2022-09-07T04:56:19.286Z,3.80
2022-09-07T04:58:47.287Z,3.90
2022-09-07T05:01:19.747Z,3.97
2022-09-07T05:03:47.071Z,3.92
2022-09-07T05:06:14.780Z,3.92
2022-09-07T05:08:43.880Z,4.07
2022-09-07T05:11:12.262Z,4.43
2022-09-07T05:13:39.821Z,4.18
2022-09-07T05:16:13.428Z,4.20
2022-09-07T05:18:42.691Z,4.05
2022-09-07T05:21:11.784Z,3.70
2022-09-07T05:23:39.052Z,3.67
2022-09-07T05:26:06.277Z,3.90
2022-09-07T05:28:33.447Z,3.60
2022-09-07T05:31:21.708Z,3.65
2022-09-07T05:36:38.735Z,4.38
2022-09-07T05:39:07.183Z,3.95
2022-09-07T05:41:35.033Z,3.72
2022-09-07T05:46:48.892Z,3.23
2022-09-07T05:49:16.889Z,3.30
2022-09-07T05:51:43.906Z,3.28
2022-09-07T05:54:11.084Z,3.08
2022-09-07T05:56:39.859Z,2.88
2022-09-07T05:59:06.778Z,2.87
2022-09-07T06:01:33.449Z,2.47
2022-09-07T06:04:00.545Z,2.60
2022-09-07T06:06:28.778Z,2.30
2022-09-07T06:08:55.461Z,1.98
2022-09-07T06:11:23.916Z,2.20
2022-09-07T06:13:51.646Z,2.35
2022-09-07T06:16:33.089Z,2.10
2022-09-07T06:19:04.593Z,1.83
2022-09-07T06:21:35.714Z,2.10
2022-09-07T06:24:03.639Z,2.00
2022-09-07T06:26:32.523Z,1.90
2022-09-07T06:28:59.350Z,1.90
2022-09-07T06:31:26.367Z,1.48
2022-09-07T06:33:55.668Z,1.50
2022-09-07T06:36:24.230Z,1.87
2022-09-07T06:38:52.655Z,1.60
2022-09-07T06:44:10.444Z,1.55
2022-09-07T06:49:34.023Z,2.00
2022-09-07T06:52:00.912Z,2.30
2022-09-07T06:57:16.026Z,3.40
2022-09-07T06:59:42.961Z,3.30
2022-09-07T07:02:12.030Z,3.90
2022-09-07T07:04:41.094Z,3.42
2022-09-07T07:07:10.792Z,4.68
2022-09-07T07:09:39.072Z,4.85
2022-09-07T07:12:06.804Z,4.90
2022-09-07T07:14:35.539Z,5.60
2022-09-07T07:17:03.066Z,5.57
2022-09-07T07:19:29.800Z,5.10
2022-09-07T07:24:44.786Z,5.57
2022-09-07T07:27:11.495Z,5.90
2022-09-07T07:29:38.376Z,6.07
2022-09-07T07:32:05.207Z,6.28
2022-09-07T07:34:31.946Z,6.22
2022-09-07T07:36:58.726Z,6.22
2022-09-07T07:42:31.336Z,6.82
2022-09-07T07:47:49.025Z,7.47
2022-09-07T07:50:32.086Z,7.35
2022-09-07T07:55:46.870Z,7.43
2022-09-07T07:58:15.135Z,7.78
2022-09-07T08:00:54.231Z,7.38
2022-09-07T08:03:22.937Z,7.22
2022-09-07T08:05:49.549Z,8.10
2022-09-07T08:08:16.197Z,7.53
2022-09-07T08:10:45.749Z,7.63
2022-09-07T08:13:14.461Z,7.78
2022-09-07T08:15:42.135Z,5.75
2022-09-07T08:18:09.888Z,6.00
2022-09-07T08:20:37.899Z,5.85
2022-09-07T08:23:05.153Z,5.40
2022-09-07T08:25:31.664Z,4.85
2022-09-07T08:27:58.341Z,4.07
2022-09-07T08:30:26.421Z,3.83
2022-09-07T08:32:53.093Z,4.00
2022-09-07T08:35:19.659Z,3.58
2022-09-07T08:37:46.412Z,3.60
2022-09-07T08:40:16.428Z,3.20
2022-09-07T08:42:56.993Z,3.63
2022-09-07T08:45:34.482Z,3.08
2022-09-07T08:48:04.938Z,3.17
2022-09-07T08:50:38.124Z,3.10
2022-09-07T08:53:12.410Z,2.72
2022-09-07T08:55:41.755Z,3.00
2022-09-07T08:58:32.288Z,2.40
2022-09-07T09:06:47.879Z,2.20
2022-09-07T09:09:24.195Z,2.40
2022-09-07T09:12:00.405Z,1.90
2022-09-07T09:14:33.664Z,1.80
2022-09-07T09:17:11.130Z,2.03
2022-09-07T09:19:54.684Z,1.67
2022-09-07T09:22:25.083Z,1.70
2022-09-07T09:24:58.625Z,1.98
2022-09-07T09:27:25.240Z,1.70
2022-09-07T09:29:51.836Z,1.50
2022-09-07T09:32:35.491Z,1.83
2022-09-07T09:35:11.892Z,1.57
2022-09-07T09:37:40.346Z,1.48
2022-09-07T09:40:21.233Z,1.55
2022-09-07T09:43:02.502Z,1.80
2022-09-07T09:46:12.263Z,1.23
2022-09-07T09:48:29.111Z,1.27
2022-09-07T09:53:54.732Z,1.50
2022-09-07T09:56:21.685Z,1.45
2022-09-07T10:01:36.369Z,1.30
2022-09-07T10:04:20.291Z,1.45
2022-09-07T10:06:50.717Z,1.23
2022-09-07T10:09:21.584Z,1.40
2022-09-07T10:12:08.686Z,1.40
2022-09-07T10:14:42.395Z,1.40
2022-09-07T10:17:13.977Z,1.30
2022-09-07T10:19:44.260Z,1.10
2022-09-07T10:22:24.569Z,1.42
2022-09-07T10:24:51.625Z,1.17
2022-09-07T10:27:29.957Z,1.30
2022-09-07T10:29:57.060Z,1.58
2022-09-07T10:32:37.761Z,0.93
2022-09-07T10:35:21.099Z,1.13
2022-09-07T10:37:57.886Z,1.60
2022-09-07T10:40:33.860Z,1.60
2022-09-07T10:43:26.545Z,1.60
2022-09-07T10:46:14.291Z,1.50
2022-09-07T10:48:55.680Z,1.75
2022-09-07T10:51:33.775Z,1.40
2022-09-07T10:57:08.302Z,1.60
2022-09-07T11:06:05.925Z,1.90
2022-09-07T11:14:25.551Z,1.70
2022-09-07T11:16:56.806Z,2.10
2022-09-07T11:19:37.434Z,2.38
2022-09-07T11:22:14.292Z,2.47
2022-09-07T11:25:29.034Z,2.30
2022-09-07T11:27:42.100Z,2.20
2022-09-07T11:30:18.576Z,1.92
2022-09-07T11:32:54.289Z,2.00
2022-09-07T11:35:30.230Z,1.90
2022-09-07T11:38:00.758Z,1.92
2022-09-07T11:40:31.463Z,1.90
2022-09-07T11:43:03.082Z,2.20
2022-09-07T11:45:36.035Z,2.10
2022-09-07T11:48:10.813Z,2.13
2022-09-07T11:50:44.905Z,2.03
2022-09-07T11:53:18.115Z,1.80
2022-09-07T11:55:50.689Z,2.28
2022-09-07T11:58:34.186Z,1.90
2022-09-07T12:01:11.890Z,2.30
2022-09-07T12:04:12.079Z,2.20
2022-09-07T12:07:14.992Z,2.40
2022-09-07T12:10:01.718Z,2.20
2022-09-07T12:12:49.460Z,2.08
2022-09-07T12:15:26.711Z,2.30
2022-09-07T12:18:06.731Z,2.42
2022-09-07T12:20:40.345Z,2.38
2022-09-07T12:23:21.841Z,2.42
2022-09-07T12:25:50.032Z,2.60
2022-09-07T12:29:03.956Z,2.83
2022-09-07T12:32:52.581Z,2.60
2022-09-07T12:34:59.071Z,2.63
2022-09-07T12:37:41.393Z,2.53
2022-09-07T12:40:57.101Z,2.58
2022-09-07T12:43:44.839Z,2.17
2022-09-07T12:46:23.786Z,2.00
2022-09-07T12:49:00.979Z,2.10
2022-09-07T12:54:33.893Z,2.20
2022-09-07T12:57:30.640Z,2.53
2022-09-07T13:00:14.750Z,2.30
2022-09-07T13:06:19.133Z,2.30
2022-09-07T13:09:10.698Z,1.90
2022-09-07T13:11:39.267Z,2.50
2022-09-07T13:14:24.816Z,2.20
2022-09-07T13:17:26.593Z,2.08
2022-09-07T13:20:23.315Z,2.15
2022-09-07T13:22:57.547Z,1.92
2022-09-07T13:25:45.345Z,1.73
2022-09-07T13:28:21.435Z,1.05
2022-09-07T13:30:59.644Z,1.92
2022-09-07T13:33:46.946Z,1.40
2022-09-07T13:36:24.776Z,1.50
2022-09-07T13:38:58.738Z,1.70
2022-09-07T13:41:31.514Z,1.42
2022-09-07T13:44:00.655Z,1.67
2022-09-07T13:46:57.535Z,1.63
2022-09-07T13:49:56.358Z,1.50
2022-09-07T13:52:35.200Z,1.40
2022-09-07T13:55:28.843Z,1.50
2022-09-07T13:58:11.411Z,1.90
2022-09-07T14:01:02.329Z,1.20
2022-09-07T14:03:44.795Z,1.40
2022-09-07T14:06:28.410Z,1.43
2022-09-07T14:09:02.647Z,1.45
2022-09-07T14:11:43.974Z,1.10
2022-09-07T14:14:17.861Z,1.20
2022-09-07T14:16:47.364Z,1.20
2022-09-07T14:19:20.494Z,1.40
2022-09-07T14:21:58.928Z,1.30
2022-09-07T14:24:30.961Z,1.40
2022-09-07T14:26:59.593Z,1.23
2022-09-07T14:29:31.049Z,1.33
2022-09-07T14:32:03.275Z,1.53
2022-09-07T14:34:34.225Z,1.50
2022-09-07T14:37:07.023Z,1.50
2022-09-07T14:39:38.361Z,1.45
2022-09-07T14:42:07.762Z,1.30
2022-09-07T14:44:38.939Z,1.50
2022-09-07T14:47:24.464Z,1.50
2022-09-07T14:49:52.396Z,1.60
2022-09-07T14:52:26.174Z,1.48
2022-09-07T14:54:53.805Z,1.50
2022-09-07T14:57:30.556Z,1.50
2022-09-07T14:59:58.246Z,1.25
2022-09-07T15:02:36.366Z,1.00
2022-09-07T15:05:27.888Z,1.40
2022-09-07T15:07:58.462Z,1.35
2022-09-07T15:10:39.782Z,1.70
2022-09-07T15:13:29.228Z,1.60
2022-09-07T15:16:20.280Z,1.30
2022-09-07T15:18:53.587Z,1.38
2022-09-07T15:21:21.214Z,1.30
2022-09-07T15:23:52.487Z,1.80
2022-09-07T15:29:11.056Z,1.40
2022-09-07T15:31:41.715Z,1.63
2022-09-07T15:34:11.588Z,1.08
2022-09-07T15:36:40.743Z,1.30
2022-09-07T15:39:14.321Z,1.40
2022-09-07T15:41:40.868Z,1.35
2022-09-07T15:44:14.529Z,1.52
2022-09-07T15:47:42.082Z,1.33
2022-09-07T15:49:32.507Z,1.13
2022-09-07T15:52:07.000Z,1.10
2022-09-07T15:54:37.154Z,1.35
2022-09-07T15:59:55.094Z,1.42
2022-09-07T16:05:10.479Z,1.20
2022-09-07T16:10:24.028Z,2.10
2022-09-07T16:15:45.805Z,1.30
2022-09-07T16:18:16.584Z,1.25
2022-09-07T16:20:44.167Z,1.40
2022-09-07T16:23:15.295Z,1.50
2022-09-07T16:25:54.990Z,1.40
2022-09-07T16:28:23.236Z,1.50
2022-09-07T16:30:51.572Z,1.10
2022-09-07T16:33:18.190Z,1.20
2022-09-07T16:35:59.157Z,1.38
2022-09-07T16:41:14.503Z,1.30
2022-09-07T16:43:41.379Z,1.23
2022-09-07T16:46:12.710Z,1.02
2022-09-07T16:48:39.966Z,1.30
2022-09-07T16:51:06.994Z,1.30
2022-09-07T16:53:35.800Z,1.30
2022-09-07T16:56:03.674Z,1.23
2022-09-07T16:58:38.489Z,1.33
2022-09-07T17:01:07.019Z,1.30
2022-09-07T17:03:36.163Z,1.50
2022-09-07T17:06:05.212Z,1.43
2022-09-07T17:08:33.161Z,1.42
2022-09-07T17:11:15.935Z,1.13
2022-09-07T17:13:43.445Z,1.27
2022-09-07T17:16:11.737Z,1.33
2022-09-07T17:21:31.261Z,1.38
2022-09-07T17:23:59.931Z,1.50
2022-09-07T17:26:27.329Z,1.63
2022-09-07T17:28:59.677Z,1.55
2022-09-07T17:34:17.016Z,2.08
2022-09-07T17:36:43.583Z,1.52
2022-09-07T17:39:14.992Z,1.40
2022-09-07T17:41:43.237Z,1.38
2022-09-07T17:44:10.014Z,1.53
2022-09-07T17:46:36.800Z,1.45
2022-09-07T17:49:03.801Z,1.40
2022-09-07T17:51:32.656Z,1.40
2022-09-07T17:54:01.540Z,1.50
2022-09-07T17:56:28.731Z,1.30
2022-09-07T18:00:10.639Z,1.30
2022-09-07T18:01:42.718Z,1.20
2022-09-07T18:04:10.099Z,1.38
2022-09-07T18:06:38.063Z,1.15
2022-09-07T18:09:05.675Z,1.27
2022-09-07T18:11:49.015Z,1.42
2022-09-07T18:14:17.813Z,1.30
2022-09-07T18:16:49.334Z,0.93
2022-09-07T18:19:19.414Z,1.58
2022-09-07T18:21:54.247Z,1.70
2022-09-07T18:24:23.326Z,1.10
2022-09-07T18:26:52.747Z,1.40
2022-09-07T18:29:28.810Z,1.50
2022-09-07T18:31:58.176Z,1.33
2022-09-07T18:34:24.915Z,1.10
2022-09-07T18:36:56.553Z,1.25
2022-09-07T18:39:23.361Z,1.02
2022-09-07T18:41:49.954Z,1.30
2022-09-07T18:47:05.702Z,1.30
2022-09-07T18:49:32.495Z,1.30
2022-09-07T18:54:50.522Z,1.42
2022-09-07T18:57:17.362Z,1.13
2022-09-07T18:59:44.288Z,1.30
2022-09-07T19:02:11.214Z,1.35
2022-09-07T19:07:29.917Z,1.30
2022-09-07T19:09:57.072Z,1.20
2022-09-07T19:12:23.644Z,1.10
2022-09-07T19:14:51.788Z,1.13
2022-09-07T19:17:19.264Z,0.90
2022-09-07T19:19:45.838Z,1.20
2022-09-07T19:22:16.688Z,1.40
2022-09-07T19:24:47.629Z,1.20
2022-09-07T19:27:19.453Z,1.20
2022-09-07T19:29:46.077Z,1.17
2022-09-07T19:32:13.285Z,1.30
2022-09-07T19:34:41.821Z,1.33
2022-09-07T19:37:17.080Z,1.40
2022-09-07T19:39:43.746Z,1.00
2022-09-07T19:42:16.698Z,1.45
2022-09-07T19:44:45.733Z,1.65
2022-09-07T19:47:16.977Z,1.27
2022-09-07T19:49:48.501Z,1.43
2022-09-07T19:52:17.458Z,1.50
2022-09-07T19:54:44.093Z,1.50
2022-09-07T19:57:12.556Z,1.50
2022-09-07T19:59:39.110Z,2.10
2022-09-07T20:02:06.407Z,1.60
2022-09-07T20:04:33.070Z,1.45
2022-09-07T20:06:59.932Z,1.42
2022-09-07T20:09:26.810Z,1.50
2022-09-07T20:11:55.562Z,1.35
2022-09-07T20:14:23.712Z,1.53
2022-09-07T20:16:50.300Z,1.40
2022-09-07T20:19:18.029Z,1.48
2022-09-07T20:21:44.592Z,1.10
2022-09-07T20:24:11.691Z,1.30
2022-09-07T20:26:38.355Z,1.53
2022-09-07T20:29:26.231Z,1.30
2022-09-07T20:31:55.140Z,1.30
2022-09-07T20:34:21.853Z,1.20
2022-09-07T20:36:54.741Z,1.30
2022-09-07T20:39:21.785Z,1.40
2022-09-07T20:41:49.790Z,1.40
2022-09-07T20:44:16.789Z,1.35
2022-09-07T20:46:45.475Z,1.67
2022-09-07T20:49:16.024Z,1.80
2022-09-07T20:51:48.528Z,1.43
2022-09-07T20:54:15.245Z,1.40
2022-09-07T20:56:43.995Z,1.75
2022-09-07T20:59:13.232Z,1.33
2022-09-07T21:01:40.223Z,1.00
2022-09-07T21:04:07.131Z,1.40
2022-09-07T21:06:36.116Z,1.27
2022-09-07T21:09:03.575Z,1.40
2022-09-07T21:11:32.258Z,1.60
2022-09-07T21:14:01.118Z,1.30
2022-09-07T21:16:29.308Z,1.50
2022-09-07T21:18:57.825Z,1.48
2022-09-07T21:21:26.112Z,1.42
2022-09-07T21:23:58.683Z,1.50
2022-09-07T21:26:26.811Z,1.35
2022-09-07T21:28:56.919Z,1.37
2022-09-07T21:31:24.823Z,1.40
2022-09-07T21:33:56.023Z,1.45
2022-09-07T21:36:23.031Z,1.20
2022-09-07T21:38:51.526Z,2.00
2022-09-07T21:41:21.292Z,1.50
2022-09-07T21:43:49.161Z,1.40
2022-09-07T21:46:17.835Z,1.63
2022-09-07T21:48:45.493Z,1.42
2022-09-07T21:51:15.855Z,2.00
2022-09-07T21:53:43.654Z,1.87
2022-09-07T21:56:12.132Z,2.15
2022-09-07T21:58:41.078Z,2.47
2022-09-07T22:01:12.407Z,2.50
2022-09-07T22:03:39.802Z,2.42
2022-09-07T22:06:07.491Z,2.30
2022-09-07T22:08:34.943Z,2.13
2022-09-07T22:11:06.089Z,1.98
2022-09-07T22:13:33.416Z,2.60
2022-09-07T22:16:02.056Z,2.70
2022-09-07T22:18:30.386Z,2.30
2022-09-07T22:21:05.325Z,2.67
2022-09-07T22:23:33.676Z,2.92
2022-09-07T22:26:01.478Z,2.70
2022-09-07T22:28:28.899Z,2.70
2022-09-07T22:30:56.091Z,2.90
2022-09-07T22:33:24.643Z,3.50
2022-09-07T22:35:51.228Z,2.70
2022-09-07T22:38:18.259Z,2.67
2022-09-07T22:40:45.104Z,2.85
2022-09-07T22:43:12.759Z,2.40
2022-09-07T22:45:39.439Z,3.00
2022-09-07T22:48:06.404Z,2.67
2022-09-07T22:50:34.914Z,2.92
2022-09-07T22:53:01.635Z,2.85
2022-09-07T22:55:28.521Z,3.20
2022-09-07T22:57:55.408Z,3.40
2022-09-07T23:00:21.958Z,3.50
2022-09-07T23:02:48.764Z,3.38
2022-09-07T23:05:15.763Z,3.03
2022-09-07T23:07:43.850Z,3.10
2022-09-07T23:10:10.998Z,3.10
2022-09-07T23:12:37.653Z,3.30
2022-09-07T23:15:05.058Z,3.00
2022-09-07T23:17:33.692Z,3.70
2022-09-07T23:20:00.530Z,3.60
2022-09-07T23:22:27.153Z,2.83
2022-09-07T23:24:56.202Z,2.80
2022-09-07T23:27:23.187Z,2.58
2022-09-07T23:29:49.908Z,2.30
2022-09-07T23:32:17.021Z,2.33
2022-09-07T23:34:43.946Z,2.00
2022-09-07T23:37:10.969Z,2.30
2022-09-07T23:39:41.348Z,2.00
2022-09-07T23:42:09.710Z,1.95
2022-09-07T23:44:36.641Z,1.60
2022-09-07T23:47:03.331Z,1.70
2022-09-07T23:49:30.159Z,1.65
2022-09-07T23:51:56.894Z,1.77
2022-09-07T23:54:24.146Z,1.73
2022-09-07T23:56:51.351Z,1.77
2022-09-07T23:59:19.596Z,1.85
